Time;durP1;ratioP1;P1;durP2;ratioP2;P2;SDS_P1;SDS_P2;PMS_P1;PMS_P2;Temp;Humidity;BMP_temperature;BMP_pressure;BME280_temperature;BME280_humidity;BME280_pressure;Samples;Min_cycle;Max_cycle;Signal;HPM_P1;HPM_P2
2022/04/17 00:01:02;;;;;;;1.65;1.10;;;4.60;17.60;;;;;;4947604;28;34206;-74
2022/04/17 00:03:28;;;;;;;1.08;0.98;;;4.60;17.60;;;;;;4946750;28;36676;-74
2022/04/17 00:05:54;;;;;;;0.90;0.85;;;4.60;18.20;;;;;;4947663;28;34115;-74
2022/04/17 00:08:20;;;;;;;1.80;1.08;;;4.60;17.60;;;;;;4963258;28;34056;-74
2022/04/17 00:10:47;;;;;;;1.67;1.00;;;4.50;17.80;;;;;;4958166;28;33990;-74
2022/04/17 00:13:14;;;;;;;1.60;1.27;;;4.50;18.00;;;;;;4969136;28;36863;-74
2022/04/17 00:15:40;;;;;;;0.95;0.90;;;4.50;18.10;;;;;;4950309;28;34230;-74
2022/04/17 00:18:06;;;;;;;1.20;1.10;;;4.50;18.00;;;;;;4969230;28;34157;-74
2022/04/17 00:20:33;;;;;;;1.00;1.00;;;4.50;17.90;;;;;;4969823;28;34367;-74
2022/04/17 00:22:58;;;;;;;0.90;0.90;;;4.50;17.90;;;;;;4986774;28;34177;-74
2022/04/17 00:25:24;;;;;;;1.08;0.98;;;4.50;17.90;;;;;;4953717;28;34163;-74
2022/04/17 00:27:50;;;;;;;1.65;0.95;;;4.40;17.80;;;;;;4970082;28;34309;-74
2022/04/17 00:30:16;;;;;;;1.45;1.13;;;4.40;18.00;;;;;;4953743;28;34129;-74
2022/04/17 00:32:43;;;;;;;0.80;0.80;;;4.40;17.90;;;;;;4953206;28;35637;-74
2022/04/17 00:35:09;;;;;;;1.30;0.90;;;4.30;18.20;;;;;;4969587;28;34111;-74
2022/04/17 00:37:36;;;;;;;1.10;1.00;;;4.30;18.40;;;;;;4985994;28;34050;-74
2022/04/17 00:40:04;;;;;;;1.83;1.20;;;4.20;18.30;;;;;;4985861;28;34240;-74
2022/04/17 00:42:30;;;;;;;1.80;1.17;;;4.20;18.30;;;;;;4967513;28;35950;-74
2022/04/17 00:44:59;;;;;;;2.70;1.10;;;4.10;18.40;;;;;;4965743;28;34219;-75
2022/04/17 00:47:25;;;;;;;1.63;1.33;;;4.10;18.80;;;;;;4986422;28;34059;-74
2022/04/17 00:49:51;;;;;;;0.90;0.90;;;4.00;18.50;;;;;;4953510;28;34464;-74
2022/04/17 00:52:20;;;;;;;1.13;1.00;;;4.00;18.60;;;;;;4985112;28;36005;-74
2022/04/17 00:54:47;;;;;;;1.15;0.95;;;3.90;18.90;;;;;;4979534;28;34153;-74
2022/04/17 00:57:16;;;;;;;1.10;1.00;;;3.90;19.10;;;;;;4965338;28;34393;-74
2022/04/17 00:59:43;;;;;;;1.05;0.82;;;3.90;19.00;;;;;;4986785;28;34032;-74
2022/04/17 01:02:10;;;;;;;0.90;0.90;;;3.90;18.90;;;;;;4985309;28;35964;-74
2022/04/17 01:04:37;;;;;;;1.40;1.00;;;3.80;19.00;;;;;;4969182;28;34293;-74
2022/04/17 01:07:04;;;;;;;2.22;1.30;;;3.80;19.10;;;;;;4985301;28;34251;-74
2022/04/17 01:09:30;;;;;;;1.15;1.00;;;3.80;19.10;;;;;;4969321;28;34251;-74
2022/04/17 01:11:57;;;;;;;1.17;1.08;;;3.70;19.00;;;;;;4968269;28;36657;-74
2022/04/17 01:14:26;;;;;;;0.85;0.85;;;3.70;18.90;;;;;;4984764;28;34130;-74
2022/04/17 01:16:52;;;;;;;1.05;0.90;;;3.70;19.10;;;;;;4968873;28;34153;-74
2022/04/17 01:19:18;;;;;;;0.90;0.90;;;3.70;19.20;;;;;;4968639;28;34546;-74
2022/04/17 01:21:46;;;;;;;0.90;0.88;;;3.60;19.30;;;;;;4984452;28;35819;-74
2022/04/17 01:26:56;;;;;;;0.95;0.95;;;3.60;19.80;;;;;;4985339;28;34187;-74
2022/04/17 01:29:23;;;;;;;0.85;0.85;;;3.50;19.70;;;;;;4951817;28;34129;-74
2022/04/17 01:31:50;;;;;;;0.98;0.90;;;3.50;19.80;;;;;;4952773;28;36083;-74
2022/04/17 01:34:17;;;;;;;0.98;0.98;;;3.50;19.60;;;;;;4952531;28;34436;-74
2022/04/17 01:36:45;;;;;;;0.85;0.85;;;3.40;20.10;;;;;;4968488;28;34311;-74
2022/04/17 01:39:11;;;;;;;1.80;1.20;;;3.40;20.00;;;;;;4968630;28;34221;-74
2022/04/17 01:41:38;;;;;;;1.20;1.10;;;3.30;20.00;;;;;;4968262;28;35883;-74
2022/04/17 01:44:04;;;;;;;0.82;0.82;;;3.30;20.00;;;;;;4968243;28;34237;-74
2022/04/17 01:46:30;;;;;;;1.33;1.05;;;3.20;20.40;;;;;;4952453;28;34163;-74
2022/04/17 01:48:56;;;;;;;2.30;0.98;;;3.20;20.20;;;;;;4968773;28;34421;-74
2022/04/17 01:51:22;;;;;;;1.27;1.17;;;3.20;20.30;;;;;;4967756;28;35641;-74
2022/04/17 01:53:48;;;;;;;1.10;1.00;;;3.20;20.50;;;;;;4984429;28;34024;-74
2022/04/17 01:56:14;;;;;;;2.15;0.90;;;3.10;20.50;;;;;;4967950;28;34238;-74
2022/04/17 01:58:40;;;;;;;1.55;1.20;;;3.10;20.80;;;;;;4968812;28;34380;-74
2022/04/17 02:01:06;;;;;;;1.60;1.00;;;3.00;21.00;;;;;;4964562;28;36787;-74
2022/04/17 02:03:32;;;;;;;1.90;1.05;;;3.00;21.40;;;;;;4984257;28;34086;-74
2022/04/17 02:06:00;;;;;;;1.20;1.10;;;3.00;21.40;;;;;;4984409;28;34319;-74
2022/04/17 02:08:30;;;;;;;1.08;0.98;;;2.90;21.40;;;;;;4984505;28;34507;-74
2022/04/17 02:10:56;;;;;;;1.42;0.93;;;2.90;21.60;;;;;;4967584;28;36573;-74
2022/04/17 02:13:23;;;;;;;1.30;1.20;;;2.90;21.60;;;;;;4967901;28;34147;-74
2022/04/17 02:15:53;;;;;;;1.67;1.40;;;2.80;21.60;;;;;;4967801;28;34161;-75
2022/04/17 02:18:21;;;;;;;1.70;1.40;;;2.80;21.40;;;;;;4983759;28;34603;-74
2022/04/17 02:20:48;;;;;;;1.27;1.17;;;2.80;22.20;;;;;;4985052;28;34183;-74
2022/04/17 02:23:14;;;;;;;1.00;1.00;;;2.80;22.20;;;;;;4983413;28;34245;-74
2022/04/17 02:25:41;;;;;;;0.90;0.90;;;2.70;22.00;;;;;;4984160;28;34181;-74
2022/04/17 02:28:08;;;;;;;1.20;1.10;;;2.70;22.30;;;;;;4983964;28;34273;-74
2022/04/17 02:30:34;;;;;;;1.20;1.10;;;2.70;22.50;;;;;;4967689;28;35304;-74
2022/04/17 02:33:00;;;;;;;1.25;1.15;;;2.70;22.40;;;;;;4985281;28;34090;-75
2022/04/17 02:35:26;;;;;;;1.42;1.00;;;2.60;22.40;;;;;;4983879;28;34275;-74
2022/04/17 02:37:52;;;;;;;1.35;1.20;;;2.60;22.40;;;;;;4967716;28;34483;-74
2022/04/17 02:40:18;;;;;;;1.88;1.35;;;2.60;22.80;;;;;;4966746;28;36604;-74
2022/04/17 02:42:44;;;;;;;1.40;1.30;;;2.50;22.90;;;;;;4967339;28;34256;-74
2022/04/17 02:45:10;;;;;;;1.55;1.45;;;2.50;22.80;;;;;;4984341;28;34138;-74
2022/04/17 02:47:43;;;;;;;3.47;1.30;;;2.50;22.90;;;;;;4967678;28;34079;-74
2022/04/17 02:50:10;;;;;;;2.10;1.58;;;2.50;23.20;;;;;;4966744;28;36079;-74
2022/04/17 02:52:36;;;;;;;1.48;1.38;;;2.50;23.20;;;;;;4967581;28;34203;-74
2022/04/17 02:55:03;;;;;;;2.28;1.60;;;2.50;23.10;;;;;;4967412;28;34138;-74
2022/04/17 02:57:30;;;;;;;1.73;1.63;;;2.50;23.10;;;;;;4967093;28;34614;-74
2022/04/17 02:59:56;;;;;;;1.50;1.40;;;2.50;23.10;;;;;;4967651;28;35178;-74
2022/04/17 03:07:45;;;;;;;1.55;1.42;;;2.40;23.40;;;;;;4968948;28;34275;-74
2022/04/17 03:10:11;;;;;;;1.40;1.25;;;2.40;23.30;;;;;;4966779;28;35555;-74
2022/04/17 03:12:38;;;;;;;3.60;1.40;;;2.40;23.40;;;;;;4951186;28;34335;-74
2022/04/17 03:15:05;;;;;;;1.85;1.60;;;2.40;23.60;;;;;;4983192;28;34304;-75
2022/04/17 03:17:31;;;;;;;1.50;1.40;;;2.40;23.40;;;;;;4951199;28;34460;-74
2022/04/17 03:19:57;;;;;;;1.40;1.30;;;2.40;23.10;;;;;;4950869;28;36202;-74
2022/04/17 03:22:25;;;;;;;1.52;1.42;;;2.40;23.00;;;;;;4966664;28;34247;-74
2022/04/17 03:24:51;;;;;;;1.65;1.52;;;2.40;23.40;;;;;;4984557;28;34066;-74
2022/04/17 03:27:19;;;;;;;1.60;1.50;;;2.40;23.30;;;;;;4966742;28;34010;-74
2022/04/17 03:29:45;;;;;;;2.13;1.70;;;2.40;23.70;;;;;;4983925;28;34331;-74
2022/04/17 03:32:11;;;;;;;2.13;1.85;;;2.40;23.40;;;;;;5002248;28;34200;-74
2022/04/17 03:34:37;;;;;;;2.03;1.70;;;2.40;23.50;;;;;;4986361;28;34135;-74
2022/04/17 03:37:04;;;;;;;1.98;1.70;;;2.40;23.50;;;;;;5003945;28;34256;-74
2022/04/17 03:39:31;;;;;;;2.25;1.80;;;2.40;23.40;;;;;;4986004;28;34203;-74
2022/04/17 03:41:57;;;;;;;2.13;1.90;;;2.40;23.50;;;;;;4986327;28;34080;-74
2022/04/17 03:44:24;;;;;;;1.80;1.65;;;2.40;23.10;;;;;;4985941;28;34170;-74
2022/04/17 03:46:51;;;;;;;1.95;1.67;;;2.40;22.90;;;;;;5004058;28;34130;-74
2022/04/17 03:49:17;;;;;;;1.85;1.60;;;2.40;23.10;;;;;;4985817;28;35886;-74
2022/04/17 03:54:28;;;;;;;1.70;1.60;;;2.40;23.50;;;;;;5006999;28;34225;-74
2022/04/17 03:56:54;;;;;;;3.30;1.67;;;2.30;23.70;;;;;;4989419;28;34149;-74
2022/04/17 03:59:20;;;;;;;1.90;1.60;;;2.30;23.80;;;;;;4989374;28;36318;-74
2022/04/17 04:01:46;;;;;;;1.85;1.70;;;2.30;23.80;;;;;;5007205;28;33984;-74
2022/04/17 04:04:14;;;;;;;3.00;1.88;;;2.20;23.70;;;;;;5006882;28;34179;-74
2022/04/17 04:06:41;;;;;;;2.97;1.90;;;2.20;24.00;;;;;;5007167;28;34266;-74
2022/04/17 04:09:07;;;;;;;2.72;2.00;;;2.20;23.90;;;;;;4989067;28;35939;-74
2022/04/17 04:11:33;;;;;;;2.80;2.03;;;2.10;23.90;;;;;;5006303;28;34188;-74
2022/04/17 04:13:59;;;;;;;1.58;1.48;;;2.10;24.00;;;;;;4989117;28;34210;-74
2022/04/17 04:16:25;;;;;;;2.22;1.50;;;2.10;24.20;;;;;;4988687;28;34106;-74
2022/04/17 04:18:51;;;;;;;2.17;1.67;;;2.10;24.10;;;;;;4988974;28;35467;-75
2022/04/17 04:21:17;;;;;;;2.13;1.92;;;2.10;24.00;;;;;;4973410;28;34544;-74
2022/04/17 04:23:43;;;;;;;1.65;1.52;;;2.00;24.70;;;;;;5006412;28;34361;-74
2022/04/17 04:26:09;;;;;;;2.38;1.73;;;2.00;24.60;;;;;;4972561;28;34416;-75
2022/04/17 04:28:36;;;;;;;2.28;1.58;;;1.90;24.60;;;;;;4988645;28;35572;-74
2022/04/17 04:31:05;;;;;;;1.73;1.60;;;1.90;25.80;;;;;;5006778;28;34323;-74
2022/04/17 04:33:32;;;;;;;1.98;1.77;;;1.90;24.80;;;;;;4989204;28;34000;-74
2022/04/17 04:35:59;;;;;;;2.25;2.05;;;1.90;25.30;;;;;;4989014;28;34203;-74
2022/04/17 04:38:25;;;;;;;2.22;1.65;;;1.80;25.30;;;;;;5005801;28;35082;-74
2022/04/17 04:40:51;;;;;;;1.75;1.48;;;1.90;25.20;;;;;;4989130;28;34217;-74
2022/04/17 04:43:17;;;;;;;7.97;1.70;;;1.80;25.20;;;;;;4988750;28;34182;-74
2022/04/17 04:51:06;;;;;;;2.03;1.85;;;1.80;25.30;;;;;;4991007;28;34149;-74
2022/04/17 04:53:32;;;;;;;2.22;2.00;;;1.90;25.20;;;;;;4979201;28;34213;-74
2022/04/17 04:55:59;;;;;;;2.65;1.85;;;1.80;25.80;;;;;;4986558;28;34361;-74
2022/04/17 04:58:25;;;;;;;3.22;2.17;;;1.90;25.50;;;;;;4986506;28;34315;-74
2022/04/17 05:00:51;;;;;;;2.65;2.25;;;1.90;25.60;;;;;;4969334;28;34167;-74
2022/04/17 05:03:17;;;;;;;3.05;1.90;;;1.90;26.00;;;;;;4968536;28;34377;-74
2022/04/17 05:05:43;;;;;;;3.75;2.10;;;1.90;25.50;;;;;;4969310;28;34048;-74
2022/04/17 05:08:09;;;;;;;2.20;1.85;;;1.90;25.80;;;;;;4970792;28;35812;-74
2022/04/17 05:10:35;;;;;;;2.55;1.90;;;1.90;25.50;;;;;;4972017;28;34044;-74
2022/04/17 05:13:00;;;;;;;3.78;2.13;;;1.90;26.00;;;;;;4972605;28;34481;-74
2022/04/17 05:15:26;;;;;;;2.28;1.95;;;1.90;25.70;;;;;;4972517;28;34042;-74
2022/04/17 05:17:52;;;;;;;4.63;2.40;;;1.90;26.00;;;;;;4971866;28;35657;-74
2022/04/17 05:20:19;;;;;;;2.10;1.90;;;1.90;26.10;;;;;;4971805;28;33970;-74
2022/04/17 05:22:45;;;;;;;4.70;2.17;;;2.00;25.70;;;;;;4971961;28;34239;-74
2022/04/17 05:25:11;;;;;;;2.10;1.85;;;2.00;25.90;;;;;;4971813;28;34100;-74
2022/04/17 05:27:37;;;;;;;2.10;1.90;;;2.00;26.10;;;;;;4988178;28;35486;-75
2022/04/17 05:30:03;;;;;;;2.30;2.00;;;2.00;26.50;;;;;;4971926;28;34160;-74
2022/04/17 05:32:29;;;;;;;2.15;1.95;;;2.00;26.70;;;;;;4988041;28;34174;-74
2022/04/17 05:34:55;;;;;;;1.73;1.52;;;2.10;26.40;;;;;;4988342;28;34269;-74
2022/04/17 05:37:21;;;;;;;2.53;1.88;;;2.10;26.60;;;;;;4987948;28;35831;-74
2022/04/17 05:39:46;;;;;;;2.05;1.85;;;2.20;26.50;;;;;;4988830;28;34178;-74
2022/04/17 05:42:14;;;;;;;2.25;2.05;;;2.30;26.60;;;;;;4968832;28;34086;-74
2022/04/17 05:44:40;;;;;;;2.90;2.05;;;2.40;26.30;;;;;;4949001;28;34460;-74
2022/04/17 05:47:06;;;;;;;3.25;1.67;;;2.50;26.20;;;;;;4949052;28;36196;-74
2022/04/17 05:49:32;;;;;;;2.13;1.75;;;2.60;26.00;;;;;;4949216;28;34306;-74
2022/04/17 05:51:58;;;;;;;2.50;2.00;;;2.70;25.80;;;;;;4949157;28;34117;-74
2022/04/17 05:54:25;;;;;;;3.00;2.38;;;2.80;25.40;;;;;;4933156;28;34203;-74
2022/04/17 05:56:51;;;;;;;2.33;1.88;;;3.00;25.80;;;;;;4964691;28;35644;-74
2022/04/17 05:59:17;;;;;;;1.95;1.77;;;3.30;25.20;;;;;;4962404;28;34576;-74
2022/04/17 06:01:43;;;;;;;2.40;1.75;;;3.70;24.80;;;;;;4978322;28;34198;-75
2022/04/17 06:04:09;;;;;;;2.53;1.63;;;4.20;24.10;;;;;;4967936;28;34154;-74
2022/04/17 06:06:34;;;;;;;2.17;2.00;;;5.00;22.60;;;;;;4968091;28;34787;-75
2022/04/17 06:09:02;;;;;;;3.80;2.47;;;5.80;20.70;;;;;;4952263;28;34233;-75
2022/04/17 06:11:28;;;;;;;3.35;2.33;;;6.80;19.40;;;;;;4951710;28;34242;-75
2022/04/17 06:13:55;;;;;;;3.00;1.95;;;7.80;18.10;;;;;;4967718;28;34123;-75
2022/04/17 06:16:21;;;;;;;2.28;2.08;;;8.70;16.90;;;;;;4946268;28;35889;-74
2022/04/17 06:18:47;;;;;;;2.28;1.95;;;9.70;15.80;;;;;;4964877;28;34063;-75
2022/04/17 06:21:13;;;;;;;4.20;2.20;;;10.60;14.70;;;;;;4948472;28;34121;-75
2022/04/17 06:23:39;;;;;;;2.75;2.38;;;11.50;14.10;;;;;;4960316;28;34580;-75
2022/04/17 06:26:06;;;;;;;3.83;1.67;;;12.20;13.10;;;;;;4983658;28;36091;-74
2022/04/17 06:28:32;;;;;;;2.55;1.70;;;13.00;12.60;;;;;;4968221;28;34242;-75
2022/04/17 06:30:58;;;;;;;1.83;1.58;;;13.80;11.80;;;;;;4968035;28;34288;-75
2022/04/17 06:33:24;;;;;;;1.40;1.30;;;14.50;11.30;;;;;;4959392;28;34197;-75
2022/04/17 06:35:51;;;;;;;1.95;1.58;;;14.90;10.50;;;;;;4967669;28;34206;-76
2022/04/17 06:38:17;;;;;;;2.00;1.55;;;15.50;10.60;;;;;;4964596;28;34341;-75
2022/04/17 06:40:43;;;;;;;1.63;1.52;;;16.00;9.50;;;;;;4967302;28;34502;-76
2022/04/17 06:43:09;;;;;;;2.25;1.67;;;16.40;8.80;;;;;;4967942;28;34551;-75
2022/04/17 06:45:37;;;;;;;1.92;1.60;;;16.80;8.50;;;;;;4981103;28;35768;-76
2022/04/17 06:48:21;;;;;;;2.72;1.45;;;17.10;8.00;;;;;;4951542;28;34293;-75
2022/04/17 06:50:49;;;;;;;3.22;1.30;;;17.40;2.30;;;;;;4951819;28;34285;-76
2022/04/17 06:53:15;;;;;;;2.67;1.60;;;17.50;7.30;;;;;;4966881;28;34131;-76
2022/04/17 06:55:41;;;;;;;1.77;1.45;;;17.40;6.70;;;;;;4967226;28;36586;-76
2022/04/17 06:58:08;;;;;;;1.73;1.58;;;17.40;6.90;;;;;;4984791;28;34187;-76
2022/04/17 07:00:35;;;;;;;1.40;1.30;;;17.40;7.00;;;;;;4951089;28;34337;-75
2022/04/17 07:03:00;;;;;;;5.30;1.52;;;17.40;6.70;;;;;;4967409;28;34184;-76
2022/04/17 07:05:26;;;;;;;2.38;1.65;;;17.30;6.90;;;;;;4966476;28;35492;-75
2022/04/17 07:08:03;;;;;;;1.85;1.40;;;17.30;6.80;;;;;;4951262;28;34386;-76
2022/04/17 07:10:30;;;;;;;1.45;1.30;;;17.20;3.40;;;;;;4961089;28;34168;-76
2022/04/17 07:12:56;;;;;;;1.77;1.42;;;16.90;6.20;;;;;;4955858;28;34074;-76
2022/04/17 07:15:24;;;;;;;4.20;1.63;;;16.60;6.60;;;;;;4982979;28;36266;-76
2022/04/17 07:17:51;;;;;;;2.72;1.65;;;16.50;5.60;;;;;;4967501;28;34080;-75
2022/04/17 07:20:17;;;;;;;1.75;1.30;;;16.30;6.30;;;;;;4983416;28;34264;-77
2022/04/17 07:22:44;;;;;;;3.28;1.50;;;16.00;6.50;;;;;;4984088;28;34201;-76
2022/04/17 07:25:11;;;;;;;2.38;1.38;;;15.80;7.10;;;;;;4967602;28;34999;-76
2022/04/17 07:27:44;;;;;;;2.47;1.50;;;15.80;7.30;;;;;;4950629;28;34093;-76
2022/04/17 07:30:13;;;;;;;2.25;1.40;;;15.70;6.20;;;;;;4966539;28;34344;-76
2022/04/17 07:32:41;;;;;;;1.50;1.40;;;15.50;6.50;;;;;;4962888;28;34162;-76
2022/04/17 07:35:08;;;;;;;1.63;1.42;;;15.40;6.70;;;;;;4982015;28;35696;-75
2022/04/17 07:37:35;;;;;;;2.53;1.48;;;15.30;7.30;;;;;;4982533;28;34247;-75
2022/04/17 07:40:10;;;;;;;1.55;1.25;;;15.10;7.80;;;;;;4983505;28;35382;-78
2022/04/17 07:42:36;;;;;;;1.55;1.45;;;15.00;7.50;;;;;;4950468;28;34679;-76
2022/04/17 07:45:02;;;;;;;1.42;1.33;;;15.00;7.80;;;;;;4965154;28;35930;-76
2022/04/17 07:47:30;;;;;;;2.17;1.63;;;15.00;8.40;;;;;;4947577;28;34181;-77
2022/04/17 07:49:56;;;;;;;1.45;1.20;;;15.10;8.00;;;;;;4962949;28;34219;-76
2022/04/17 07:52:23;;;;;;;1.50;1.40;;;15.10;7.80;;;;;;4976005;28;34119;-75
2022/04/17 07:54:50;;;;;;;2.80;1.45;;;15.10;7.20;;;;;;4978158;28;34913;-76
2022/04/17 07:57:16;;;;;;;1.98;1.50;;;15.00;7.60;;;;;;4952379;28;34306;-76
2022/04/17 07:59:42;;;;;;;1.38;1.27;;;15.10;7.50;;;;;;4969277;28;34348;-76
2022/04/17 08:02:21;;;;;;;1.27;1.17;;;15.20;7.80;;;;;;4983157;28;34340;-76
2022/04/17 08:04:50;;;;;;;1.30;1.20;;;15.40;7.40;;;;;;4980937;28;35813;-76
2022/04/17 08:07:16;;;;;;;2.65;1.17;;;15.50;6.60;;;;;;4987055;28;34117;-75
2022/04/17 08:09:42;;;;;;;1.90;1.20;;;15.50;6.90;;;;;;4965939;28;34418;-76
2022/04/17 08:12:08;;;;;;;1.40;1.17;;;15.70;7.10;;;;;;4970364;28;34427;-76
2022/04/17 08:14:34;;;;;;;1.40;1.17;;;15.60;6.30;;;;;;4978385;28;36840;-75
2022/04/17 08:17:00;;;;;;;1.38;1.27;;;15.70;7.00;;;;;;4961880;28;34393;-76
2022/04/17 08:19:26;;;;;;;1.20;1.10;;;15.90;6.60;;;;;;4962281;28;34268;-76
2022/04/17 08:21:52;;;;;;;1.67;0.90;;;15.90;6.60;;;;;;4974321;28;34261;-76
2022/04/17 08:24:19;;;;;;;1.10;1.00;;;16.00;6.50;;;;;;4971236;28;34966;-75
2022/04/17 08:26:46;;;;;;;1.58;1.15;;;16.10;5.30;;;;;;4979515;28;34354;-76
2022/04/17 08:29:12;;;;;;;1.80;1.20;;;16.20;5.80;;;;;;4965562;28;34411;-76
2022/04/17 08:31:38;;;;;;;1.52;1.17;;;16.30;5.90;;;;;;4980571;28;34221;-76
2022/04/17 08:34:04;;;;;;;1.20;1.10;;;16.60;5.80;;;;;;4980262;28;35478;-76
2022/04/17 08:36:30;;;;;;;3.25;1.10;;;16.50;5.50;;;;;;4951708;28;34016;-78
2022/04/17 08:38:56;;;;;;;1.42;1.20;;;16.80;5.50;;;;;;4960106;28;34387;-78
2022/04/17 08:41:24;;;;;;;0.98;0.98;;;16.90;5.30;;;;;;4965494;28;34562;-77
2022/04/17 08:43:50;;;;;;;1.33;1.23;;;17.10;4.50;;;;;;4977470;28;35000;-76
2022/04/17 08:46:16;;;;;;;1.58;0.98;;;17.40;5.20;;;;;;4986103;28;34147;-77
2022/04/17 08:48:42;;;;;;;1.25;1.13;;;17.70;5.20;;;;;;4966717;28;34332;-77
2022/04/17 08:51:08;;;;;;;1.30;1.00;;;17.90;5.00;;;;;;4967434;28;34439;-76
2022/04/17 08:53:35;;;;;;;1.20;1.10;;;18.10;4.70;;;;;;4977448;28;34434;-76
2022/04/17 08:56:02;;;;;;;2.25;1.02;;;18.30;4.30;;;;;;4967243;28;34246;-76
2022/04/17 08:58:29;;;;;;;2.42;1.05;;;18.50;4.50;;;;;;4967337;28;34187;-76
2022/04/17 09:00:55;;;;;;;1.08;0.85;;;18.60;4.00;;;;;;4937713;28;34494;-77
2022/04/17 09:03:20;;;;;;;1.40;1.00;;;18.70;2.90;;;;;;4984344;28;34304;-76
2022/04/17 09:05:47;;;;;;;3.08;1.20;;;18.80;3.60;;;;;;4984195;28;34318;-76
2022/04/17 09:08:15;;;;;;;1.00;0.90;;;18.80;3.40;;;;;;4965901;28;34640;-76
2022/04/17 09:10:52;;;;;;;1.50;0.90;;;18.90;3.00;;;;;;4964471;28;34360;-77
2022/04/17 09:13:27;;;;;;;2.63;1.00;;;19.10;2.70;;;;;;4970527;28;35905;-76
2022/04/17 09:15:54;;;;;;;1.30;1.00;;;19.10;1.00;;;;;;4964132;28;34432;-77
2022/04/17 09:18:23;;;;;;;1.08;0.98;;;19.10;2.90;;;;;;4979652;28;34166;-77
2022/04/17 09:20:49;;;;;;;0.80;0.80;;;19.20;2.80;;;;;;4967470;28;34333;-77
2022/04/17 09:23:31;;;;;;;1.48;0.73;;;19.40;2.80;;;;;;4966080;28;34857;-77
2022/04/17 09:25:57;;;;;;;1.35;0.98;;;19.50;2.60;;;;;;4968430;28;34070;-76
2022/04/17 09:28:33;;;;;;;1.00;0.90;;;19.60;2.30;;;;;;4984878;28;34093;-76
2022/04/17 09:31:01;;;;;;;3.28;1.00;;;19.80;1.00;;;;;;4969194;28;34103;-77
2022/04/17 09:33:36;;;;;;;1.90;1.10;;;20.00;2.00;;;;;;4968160;28;35773;-76
2022/04/17 09:36:03;;;;;;;0.80;0.80;;;20.00;1.00;;;;;;4968623;28;34321;-76
2022/04/17 09:38:32;;;;;;;2.28;1.02;;;20.20;1.60;;;;;;4968731;28;34153;-77
2022/04/17 09:41:13;;;;;;;1.80;1.20;;;20.40;1.00;;;;;;4967351;28;34510;-77
2022/04/17 09:43:39;;;;;;;1.58;1.13;;;20.30;1.00;;;;;;4964960;28;36411;-78
2022/04/17 09:46:07;;;;;;;1.50;1.20;;;20.20;1.30;;;;;;4979206;28;34400;-76
2022/04/17 09:48:35;;;;;;;4.57;1.17;;;20.00;1.10;;;;;;4955769;28;34344;-76
2022/04/17 09:51:19;;;;;;;1.38;1.15;;;20.00;1.00;;;;;;4985177;28;34063;-79
2022/04/17 09:53:58;;;;;;;0.75;0.70;;;20.00;1.00;;;;;;4952582;28;36200;-76
2022/04/17 09:56:34;;;;;;;1.98;1.00;;;20.00;1.00;;;;;;4952155;28;34168;-79
2022/04/17 09:59:14;;;;;;;1.77;0.95;;;20.10;1.00;;;;;;4952190;28;34270;-76
2022/04/17 10:01:40;;;;;;;0.98;0.90;;;20.20;1.20;;;;;;4968375;28;34001;-77
2022/04/17 10:04:06;;;;;;;2.50;1.10;;;20.10;1.00;;;;;;4968224;28;34194;-77
2022/04/17 10:06:34;;;;;;;1.10;0.85;;;20.10;1.00;;;;;;4968673;28;35489;-77
2022/04/17 10:09:01;;;;;;;1.10;1.00;;;20.10;1.00;;;;;;4952033;28;34320;-76
2022/04/17 10:11:30;;;;;;;0.90;0.90;;;20.00;1.00;;;;;;4967344;28;34128;-76
2022/04/17 10:13:57;;;;;;;0.80;0.80;;;20.10;1.00;;;;;;4967161;28;35731;-77
2022/04/17 10:16:26;;;;;;;1.30;0.80;;;20.20;1.00;;;;;;4968070;28;34211;-77
2022/04/17 10:18:52;;;;;;;1.02;0.93;;;20.40;1.00;;;;;;4999763;28;34360;-75
2022/04/17 10:21:23;;;;;;;2.45;1.20;;;20.60;1.00;;;;;;4997121;28;34248;-76
2022/04/17 10:23:56;;;;;;;2.40;1.20;;;20.80;1.00;;;;;;4984592;28;34923;-75
2022/04/17 10:26:25;;;;;;;1.10;1.00;;;20.90;1.00;;;;;;4951617;28;34245;-77
2022/04/17 10:28:57;;;;;;;1.70;1.02;;;21.00;1.00;;;;;;4979120;28;34234;-77
2022/04/17 10:31:24;;;;;;;2.85;1.15;;;21.00;1.00;;;;;;4959982;28;34154;-76
2022/04/17 10:34:21;;;;;;;0.98;0.93;;;21.00;1.00;;;;;;4971920;28;34338;-76
2022/04/17 10:37:12;;;;;;;1.60;1.00;;;21.00;1.00;;;;;;4951926;28;34195;-77
2022/04/17 10:39:48;;;;;;;0.90;0.88;;;21.00;1.00;;;;;;4967579;28;34285;-77
2022/04/17 10:42:14;;;;;;;3.70;1.02;;;21.10;1.00;;;;;;4982059;28;34223;-76
2022/04/17 10:44:41;;;;;;;1.85;1.02;;;21.00;1.00;;;;;;4966792;28;35487;-77
2022/04/17 10:47:20;;;;;;;0.90;0.90;;;20.90;1.00;;;;;;4967648;28;34188;-76
2022/04/17 10:49:56;;;;;;;0.90;0.90;;;20.90;1.00;;;;;;4966733;28;34394;-77
2022/04/17 10:52:31;;;;;;;1.02;1.02;;;21.10;1.00;;;;;;4947917;28;34237;-76
2022/04/17 10:55:14;;;;;;;1.20;1.08;;;21.10;1.00;;;;;;4951006;28;36575;-76
2022/04/17 10:57:46;;;;;;;1.30;1.10;;;21.20;1.00;;;;;;4969220;28;34225;-76
2022/04/17 11:00:46;;;;;;;0.70;0.70;;;21.30;1.00;;;;;;4946593;28;34213;-76
2022/04/17 11:03:12;;;;;;;1.92;0.52;;;21.30;1.00;;;;;;4961702;28;34056;-76
2022/04/17 11:08:21;;;;;;;0.82;0.82;;;21.30;1.00;;;;;;4992695;28;34398;-77
2022/04/17 11:10:53;;;;;;;0.63;0.60;;;21.40;1.00;;;;;;4986143;28;34303;-77
2022/04/17 11:13:19;;;;;;;1.55;0.90;;;21.50;1.00;;;;;;4967256;28;34483;-77
2022/04/17 11:15:54;;;;;;;1.10;0.80;;;21.60;1.00;;;;;;4966934;28;35612;-76
2022/04/17 11:18:24;;;;;;;1.65;0.90;;;21.80;1.00;;;;;;4967175;28;34249;-78
2022/04/17 11:20:53;;;;;;;1.05;0.70;;;21.70;1.00;;;;;;4983938;28;34128;-77
2022/04/17 11:23:55;;;;;;;1.10;0.90;;;21.60;1.00;;;;;;4967452;28;34185;-79
2022/04/17 11:26:56;;;;;;;0.75;0.75;;;21.60;1.00;;;;;;4969936;28;34281;-77
2022/04/17 11:29:40;;;;;;;0.80;0.73;;;21.60;1.00;;;;;;4956387;28;34186;-76
2022/04/17 11:32:41;;;;;;;1.17;0.90;;;21.60;1.00;;;;;;4981969;28;34098;-76
2022/04/17 11:35:10;;;;;;;1.17;0.77;;;21.60;1.00;;;;;;4973500;28;34455;-79
2022/04/17 11:37:36;;;;;;;1.15;0.75;;;21.50;1.00;;;;;;4956325;28;36272;-76
2022/04/17 11:40:13;;;;;;;1.30;0.90;;;21.50;1.00;;;;;;4966923;28;34269;-76
2022/04/17 11:42:42;;;;;;;0.60;0.60;;;21.40;1.00;;;;;;4969236;28;34219;-75
2022/04/17 11:45:09;;;;;;;0.80;0.80;;;21.60;1.00;;;;;;4963411;28;34475;-76
2022/04/17 11:47:45;;;;;;;1.65;0.85;;;21.90;1.00;;;;;;4966686;28;35255;-77
2022/04/17 11:50:19;;;;;;;0.68;0.68;;;22.00;1.00;;;;;;4959722;28;34172;-76
2022/04/17 11:52:49;;;;;;;1.00;0.82;;;22.20;1.00;;;;;;4953064;28;34196;-77
2022/04/17 11:55:15;;;;;;;1.05;0.90;;;22.40;1.00;;;;;;4973763;28;34280;-77
2022/04/17 11:57:41;;;;;;;2.80;0.88;;;22.60;1.00;;;;;;4966333;28;35614;-76
2022/04/17 12:00:08;;;;;;;2.35;0.70;;;22.70;1.00;;;;;;4984425;28;34306;-79
2022/04/17 12:02:36;;;;;;;0.93;0.75;;;22.80;1.00;;;;;;4964361;28;34440;-78
2022/04/17 12:05:07;;;;;;;0.65;0.65;;;22.90;1.00;;;;;;4949729;28;34376;-76
2022/04/17 12:07:34;;;;;;;1.05;0.70;;;23.00;1.00;;;;;;4940133;28;36271;-78
2022/04/17 12:10:08;;;;;;;1.10;0.88;;;22.90;1.00;;;;;;4964332;28;34434;-75
2022/04/17 12:12:38;;;;;;;0.75;0.68;;;22.90;1.00;;;;;;4947988;28;34181;-76
2022/04/17 12:15:06;;;;;;;0.60;0.60;;;22.90;1.00;;;;;;4950882;28;34270;-76
2022/04/17 12:17:34;;;;;;;1.15;0.70;;;22.90;1.00;;;;;;4983071;28;35856;-78
2022/04/17 12:20:05;;;;;;;1.15;0.70;;;22.80;1.00;;;;;;4967431;28;34117;-76
2022/04/17 12:22:31;;;;;;;0.70;0.70;;;22.70;1.00;;;;;;4968780;28;34227;-78
2022/04/17 12:24:58;;;;;;;0.80;0.80;;;22.80;1.00;;;;;;4970129;28;34108;-77
2022/04/17 12:27:24;;;;;;;0.85;0.85;;;22.60;1.00;;;;;;4953706;28;35543;-77
2022/04/17 12:29:52;;;;;;;0.60;0.60;;;22.40;1.00;;;;;;4969518;28;34084;-78
2022/04/17 12:32:23;;;;;;;1.50;0.82;;;22.40;1.00;;;;;;4970758;28;34151;-76
2022/04/17 12:35:04;;;;;;;1.20;1.05;;;22.30;1.00;;;;;;4988445;28;34511;-76
2022/04/17 12:37:32;;;;;;;0.82;0.80;;;22.30;1.00;;;;;;4969531;28;35653;-77
2022/04/17 12:40:18;;;;;;;0.77;0.75;;;22.40;1.00;;;;;;4985595;28;34543;-77
2022/04/17 12:42:44;;;;;;;0.60;0.60;;;22.50;1.00;;;;;;4969630;28;34122;-76
2022/04/17 12:45:21;;;;;;;1.00;0.77;;;22.60;1.00;;;;;;4964436;28;34387;-76
2022/04/17 12:48:01;;;;;;;0.52;0.52;;;22.60;1.00;;;;;;4969074;28;35897;-76
2022/04/17 12:50:27;;;;;;;1.38;0.60;;;22.80;1.00;;;;;;4979778;28;34127;-76
2022/04/17 12:52:56;;;;;;;1.00;0.70;;;22.90;1.00;;;;;;4986142;28;34247;-77
2022/04/17 12:55:30;;;;;;;2.20;0.60;;;23.00;1.00;;;;;;4986207;28;34194;-78
2022/04/17 12:57:57;;;;;;;1.75;0.75;;;23.00;1.00;;;;;;4984886;28;35949;-76
2022/04/17 13:00:27;;;;;;;1.80;0.60;;;22.90;1.00;;;;;;4987151;28;34146;-76
2022/04/17 13:03:10;;;;;;;1.15;0.70;;;22.90;1.00;;;;;;4968923;28;34095;-76
2022/04/17 13:05:37;;;;;;;1.55;0.70;;;23.00;1.00;;;;;;4965517;28;34103;-76
2022/04/17 13:08:05;;;;;;;0.55;0.55;;;23.00;1.00;;;;;;4985646;28;34231;-76
2022/04/17 13:10:32;;;;;;;0.65;0.65;;;22.90;1.00;;;;;;4968818;28;34416;-77
2022/04/17 13:12:58;;;;;;;0.60;0.55;;;22.80;1.00;;;;;;4969433;28;34220;-78
2022/04/17 13:15:33;;;;;;;0.40;0.40;;;22.90;1.00;;;;;;4968560;28;34562;-76
2022/04/17 13:17:59;;;;;;;1.00;0.57;;;22.80;1.00;;;;;;4965681;28;35327;-80
2022/04/17 13:20:31;;;;;;;0.63;0.63;;;22.70;1.00;;;;;;4955456;28;34317;-78
2022/04/17 13:22:58;;;;;;;0.50;0.50;;;22.70;1.00;;;;;;4980726;28;34156;-78